createdAt,value
2022-11-17T00:01:49.572Z,89.96
2022-11-17T00:04:27.040Z,89.98
2022-11-17T00:07:03.515Z,90.07
2022-11-17T00:09:39.601Z,90.07
2022-11-17T00:12:33.291Z,90.07
2022-11-17T00:15:11.416Z,90.08
2022-11-17T00:17:49.325Z,90.00
2022-11-17T00:20:43.125Z,90.00
2022-11-17T00:23:19.081Z,90.03
2022-11-17T00:25:55.099Z,90.02
2022-11-17T00:28:31.990Z,90.09
2022-11-17T00:31:30.305Z,90.11
2022-11-17T00:34:06.690Z,90.11
2022-11-17T00:36:46.453Z,90.11
2022-11-17T00:39:25.019Z,90.18
2022-11-17T00:42:01.159Z,90.20
2022-11-17T00:44:37.142Z,90.22
2022-11-17T00:47:13.088Z,90.21
2022-11-17T00:49:49.040Z,90.28
2022-11-17T00:52:24.951Z,90.27
2022-11-17T00:55:00.893Z,90.28
2022-11-17T00:57:36.950Z,90.27
2022-11-17T01:00:16.120Z,90.30
2022-11-17T01:02:52.283Z,90.30
2022-11-17T01:05:32.822Z,90.31
2022-11-17T01:08:09.958Z,90.26
2022-11-17T01:10:45.929Z,90.28
2022-11-17T01:13:24.330Z,90.20
2022-11-17T01:16:05.091Z,90.20
2022-11-17T01:18:42.990Z,90.31
2022-11-17T01:21:23.828Z,90.34
2022-11-17T01:24:02.513Z,90.31
2022-11-17T01:26:41.307Z,90.24
2022-11-17T01:29:19.186Z,90.21
2022-11-17T01:31:56.948Z,90.26
2022-11-17T01:34:34.564Z,90.31
2022-11-17T01:37:22.639Z,90.34
2022-11-17T01:39:58.606Z,90.38
2022-11-17T01:42:34.585Z,90.49
2022-11-17T01:45:23.302Z,90.52
2022-11-17T01:48:03.323Z,90.59
2022-11-17T01:50:46.819Z,90.59
2022-11-17T01:53:28.551Z,90.51
2022-11-17T01:56:12.591Z,90.53
2022-11-17T01:58:57.246Z,90.61
2022-11-17T02:01:34.518Z,90.59
2022-11-17T02:04:11.134Z,90.52
2022-11-17T02:06:47.496Z,90.51
2022-11-17T02:09:25.742Z,90.56
2022-11-17T02:12:04.215Z,90.55
2022-11-17T02:14:42.056Z,90.55
2022-11-17T02:17:19.284Z,90.60
2022-11-17T02:20:12.452Z,90.56
2022-11-17T02:23:46.258Z,90.50
2022-11-17T02:27:17.423Z,90.42
2022-11-17T02:30:04.530Z,90.41
2022-11-17T02:33:00.222Z,90.33
2022-11-17T02:35:51.251Z,90.32
2022-11-17T02:38:38.402Z,90.31
2022-11-17T02:41:25.975Z,90.29
2022-11-17T02:44:13.908Z,90.31
2022-11-17T02:46:57.464Z,90.23
2022-11-17T02:49:38.869Z,90.22
2022-11-17T02:52:16.592Z,90.16
2022-11-17T02:54:52.539Z,90.10
2022-11-17T02:57:37.457Z,90.13
2022-11-17T03:00:20.068Z,90.10
2022-11-17T03:03:38.867Z,90.12
2022-11-17T03:06:39.750Z,90.02
2022-11-17T03:09:24.974Z,90.13
2022-11-17T03:12:17.562Z,90.22
2022-11-17T03:15:11.859Z,90.24
2022-11-17T03:17:59.768Z,90.29
2022-11-17T03:20:49.699Z,90.39
2022-11-17T03:23:34.834Z,90.39
2022-11-17T03:26:17.878Z,90.40
2022-11-17T03:28:55.645Z,90.35
2022-11-17T03:31:33.609Z,90.41
2022-11-17T03:34:14.400Z,90.42
2022-11-17T03:36:56.675Z,90.40
2022-11-17T03:39:37.891Z,90.42
2022-11-17T03:42:21.953Z,90.39
2022-11-17T03:45:10.596Z,90.42
2022-11-17T03:47:48.876Z,90.52
2022-11-17T03:50:34.111Z,90.50
2022-11-17T03:53:10.555Z,90.58
2022-11-17T03:55:58.851Z,90.52
2022-11-17T03:58:45.587Z,90.52
2022-11-17T04:01:24.215Z,90.57
2022-11-17T04:04:00.897Z,90.62
2022-11-17T04:06:36.628Z,90.61
2022-11-17T04:09:12.581Z,90.60
2022-11-17T04:12:06.243Z,90.59
2022-11-17T04:15:00.223Z,90.56
2022-11-17T04:17:36.369Z,90.58
2022-11-17T04:20:14.753Z,90.63
2022-11-17T04:23:07.126Z,90.71
2022-11-17T04:26:04.381Z,90.77
2022-11-17T04:28:45.539Z,90.79
2022-11-17T04:31:24.117Z,90.76
2022-11-17T04:34:03.119Z,90.64
2022-11-17T04:36:44.525Z,90.60
2022-11-17T04:39:20.920Z,90.62
2022-11-17T04:42:02.190Z,90.60
2022-11-17T04:44:38.136Z,90.46
2022-11-17T04:47:14.043Z,90.36
2022-11-17T04:49:50.064Z,90.08
2022-11-17T04:52:29.798Z,89.99
2022-11-17T04:55:06.676Z,89.87
2022-11-17T04:57:42.766Z,89.93
2022-11-17T05:00:21.912Z,90.02
2022-11-17T05:02:57.896Z,89.76
2022-11-17T05:05:33.940Z,89.63
2022-11-17T05:08:09.991Z,89.71
2022-11-17T05:11:15.365Z,89.66
2022-11-17T05:13:53.250Z,89.76
2022-11-17T05:16:47.285Z,89.79
2022-11-17T05:19:27.011Z,89.68
2022-11-17T05:22:03.734Z,89.58
2022-11-17T05:24:40.518Z,89.58
2022-11-17T05:27:16.271Z,89.49
2022-11-17T05:29:52.203Z,89.49
2022-11-17T05:32:28.247Z,89.50
2022-11-17T05:35:04.310Z,89.50
2022-11-17T05:37:40.263Z,89.64
2022-11-17T05:40:18.185Z,89.69
2022-11-17T05:42:57.073Z,89.59
2022-11-17T05:45:33.336Z,89.54
2022-11-17T05:48:10.534Z,89.60
2022-11-17T05:50:46.357Z,89.71
2022-11-17T05:53:22.350Z,89.67
2022-11-17T05:56:30.600Z,89.75
2022-11-17T05:59:23.312Z,89.82
2022-11-17T06:02:08.793Z,89.82
2022-11-17T06:04:46.330Z,89.96
2022-11-17T06:07:22.671Z,90.00
2022-11-17T06:09:59.213Z,89.98
2022-11-17T06:12:35.060Z,89.99
2022-11-17T06:15:13.330Z,90.00
2022-11-17T06:17:57.115Z,89.88
2022-11-17T06:20:36.938Z,89.87
2022-11-17T06:23:14.558Z,89.72
2022-11-17T06:25:51.366Z,89.81
2022-11-17T06:28:30.055Z,89.71
2022-11-17T06:31:08.562Z,89.78
2022-11-17T06:33:44.988Z,89.80
2022-11-17T06:36:21.113Z,89.79
2022-11-17T06:38:57.180Z,89.64
2022-11-17T06:41:33.163Z,89.49
2022-11-17T06:44:09.607Z,89.42
2022-11-17T06:46:48.947Z,89.49
2022-11-17T06:49:25.306Z,89.53
2022-11-17T06:52:01.575Z,89.43
2022-11-17T06:54:37.640Z,89.46
2022-11-17T06:57:13.799Z,89.49
2022-11-17T06:59:49.859Z,89.51
2022-11-17T07:02:25.917Z,89.33
2022-11-17T07:05:02.077Z,89.32
2022-11-17T07:07:38.196Z,89.21
2022-11-17T07:10:15.551Z,89.26
2022-11-17T07:12:52.841Z,89.36
2022-11-17T07:15:29.337Z,89.48
2022-11-17T07:18:05.443Z,89.42
2022-11-17T07:20:41.709Z,89.39
2022-11-17T07:23:17.768Z,89.33
2022-11-17T07:25:56.427Z,89.44
2022-11-17T07:28:33.932Z,89.59
2022-11-17T07:31:11.825Z,89.65
2022-11-17T07:33:47.691Z,89.51
2022-11-17T07:36:23.552Z,89.49
2022-11-17T07:38:59.295Z,89.44
2022-11-17T07:41:35.299Z,89.46
2022-11-17T07:44:11.880Z,89.43
2022-11-17T07:46:47.824Z,89.29
2022-11-17T07:49:23.681Z,89.13
2022-11-17T07:51:59.635Z,89.05
2022-11-17T07:54:35.415Z,88.92
2022-11-17T07:57:11.348Z,89.01
2022-11-17T07:59:47.428Z,88.85
2022-11-17T08:02:23.360Z,88.77
2022-11-17T08:04:59.315Z,88.72
2022-11-17T08:07:35.549Z,88.58
2022-11-17T08:10:13.600Z,88.30
2022-11-17T08:12:51.634Z,88.24
2022-11-17T08:15:28.163Z,88.30
2022-11-17T08:18:06.304Z,88.30
2022-11-17T08:20:42.223Z,88.37
2022-11-17T08:23:18.640Z,88.64
2022-11-17T08:25:54.957Z,88.68
2022-11-17T08:28:31.052Z,88.84
2022-11-17T08:31:09.212Z,88.96
2022-11-17T08:33:45.282Z,88.94
2022-11-17T08:36:21.113Z,88.91
2022-11-17T08:38:57.091Z,88.80
2022-11-17T08:41:33.149Z,88.65
2022-11-17T08:44:09.927Z,88.40
2022-11-17T08:46:46.087Z,88.22
2022-11-17T08:49:22.246Z,88.08
2022-11-17T08:51:58.205Z,88.43
2022-11-17T08:54:35.008Z,88.53
2022-11-17T08:57:10.927Z,88.45
2022-11-17T08:59:46.724Z,88.06
2022-11-17T09:02:22.744Z,88.15
2022-11-17T09:04:58.802Z,88.30
2022-11-17T09:07:36.935Z,88.39
2022-11-17T09:10:14.499Z,88.56
2022-11-17T09:12:50.302Z,88.51
2022-11-17T09:15:26.535Z,88.45
2022-11-17T09:18:03.251Z,88.43
2022-11-17T09:20:45.358Z,88.42
2022-11-17T09:23:21.713Z,87.77
2022-11-17T09:25:57.611Z,87.86
2022-11-17T09:28:33.980Z,88.01
2022-11-17T09:31:16.355Z,87.95
2022-11-17T09:33:52.291Z,87.43
2022-11-17T09:36:28.617Z,87.52
2022-11-17T09:39:04.478Z,87.78
2022-11-17T09:41:46.240Z,87.85
2022-11-17T09:44:40.317Z,87.98
2022-11-17T09:47:33.803Z,87.65
2022-11-17T09:50:24.732Z,87.18
2022-11-17T09:53:13.967Z,86.67
2022-11-17T09:55:55.210Z,86.65
2022-11-17T09:58:44.160Z,86.84
2022-11-17T10:01:23.596Z,87.02
2022-11-17T10:04:01.531Z,86.78
2022-11-17T10:06:40.116Z,86.54
2022-11-17T10:09:36.258Z,86.16
2022-11-17T10:12:23.607Z,86.19
2022-11-17T10:15:10.529Z,86.04
2022-11-17T10:17:46.418Z,85.93
2022-11-17T10:20:23.971Z,86.05
2022-11-17T10:23:03.035Z,86.13
2022-11-17T10:25:45.067Z,85.96
2022-11-17T10:28:33.970Z,86.04
2022-11-17T10:31:19.661Z,86.32
2022-11-17T10:33:55.914Z,86.60
2022-11-17T10:36:34.128Z,86.42
2022-11-17T10:39:39.263Z,86.29
2022-11-17T10:42:28.861Z,86.41
2022-11-17T10:45:06.496Z,86.49
2022-11-17T10:47:44.518Z,86.18
2022-11-17T10:50:30.571Z,85.90
2022-11-17T10:53:30.250Z,85.84
2022-11-17T10:56:15.783Z,85.59
2022-11-17T10:59:20.391Z,85.68
2022-11-17T11:01:57.066Z,85.73
2022-11-17T11:04:40.450Z,85.99
2022-11-17T11:07:23.765Z,85.85
2022-11-17T11:10:11.111Z,85.85
2022-11-17T11:12:54.861Z,85.60
2022-11-17T11:15:37.494Z,85.66
2022-11-17T11:18:19.802Z,85.87
2022-11-17T11:21:11.339Z,85.89
2022-11-17T11:24:02.292Z,85.40
2022-11-17T11:27:05.644Z,85.38
2022-11-17T11:30:06.269Z,85.31
2022-11-17T11:33:07.830Z,85.10
2022-11-17T11:36:15.338Z,85.25
2022-11-17T11:39:14.581Z,84.69
2022-11-17T11:42:17.948Z,84.45
2022-11-17T11:45:19.036Z,84.13
2022-11-17T11:48:27.698Z,84.17
2022-11-17T11:51:06.890Z,84.19
2022-11-17T11:53:58.811Z,84.48
2022-11-17T11:56:40.135Z,84.61
2022-11-17T11:59:25.403Z,84.67
2022-11-17T12:02:25.696Z,84.97
2022-11-17T12:05:20.605Z,84.67
2022-11-17T12:08:11.029Z,84.77
2022-11-17T12:10:58.899Z,84.61
2022-11-17T12:13:37.696Z,84.22
2022-11-17T12:16:35.395Z,83.92
2022-11-17T12:19:55.438Z,84.10
2022-11-17T12:23:07.832Z,84.11
2022-11-17T12:25:53.706Z,84.31
2022-11-17T12:28:38.904Z,84.83
2022-11-17T12:31:53.368Z,85.12
2022-11-17T12:34:33.781Z,85.00
2022-11-17T12:37:30.212Z,85.07
2022-11-17T12:40:10.266Z,84.97
2022-11-17T12:43:24.883Z,85.15
2022-11-17T12:46:26.134Z,85.09
2022-11-17T12:49:13.786Z,84.83
2022-11-17T12:52:04.037Z,84.96
2022-11-17T12:54:55.808Z,84.65
2022-11-17T12:57:36.559Z,84.35
2022-11-17T13:00:23.128Z,84.27
2022-11-17T13:03:14.416Z,84.39
2022-11-17T13:06:34.436Z,84.62
2022-11-17T13:09:15.146Z,84.87
2022-11-17T13:12:06.383Z,84.68
2022-11-17T13:14:57.553Z,84.36
2022-11-17T13:17:40.885Z,84.24
2022-11-17T13:20:29.213Z,84.44
2022-11-17T13:23:15.557Z,84.71
2022-11-17T13:25:52.348Z,84.76
2022-11-17T13:28:34.859Z,84.86
2022-11-17T13:31:18.393Z,85.00
2022-11-17T13:34:08.837Z,85.08
2022-11-17T13:36:59.099Z,84.92
2022-11-17T13:39:35.185Z,84.70
2022-11-17T13:42:13.372Z,84.78
2022-11-17T13:44:49.891Z,84.72
2022-11-17T13:47:45.536Z,84.87
2022-11-17T13:50:40.106Z,84.76
2022-11-17T13:53:33.397Z,84.78
2022-11-17T13:56:28.090Z,84.84
2022-11-17T13:59:07.050Z,84.92
2022-11-17T14:01:44.354Z,85.05
2022-11-17T14:04:24.962Z,85.13
2022-11-17T14:07:04.326Z,84.99
2022-11-17T14:09:40.163Z,84.76
2022-11-17T14:12:21.591Z,84.67
2022-11-17T14:14:57.483Z,84.79
2022-11-17T14:17:33.863Z,84.89
2022-11-17T14:23:19.720Z,84.91
2022-11-17T14:25:56.349Z,84.90
2022-11-17T14:28:32.552Z,84.90
2022-11-17T14:31:12.400Z,84.96
2022-11-17T14:33:50.614Z,85.04
2022-11-17T14:36:26.974Z,85.39
2022-11-17T14:39:05.685Z,85.63
2022-11-17T14:41:42.147Z,85.79
2022-11-17T14:44:18.524Z,85.95
2022-11-17T14:46:54.464Z,86.13
2022-11-17T14:49:30.722Z,86.33
2022-11-17T14:52:07.314Z,86.58
2022-11-17T14:54:43.318Z,86.70
2022-11-17T14:57:19.694Z,86.76
2022-11-17T14:59:56.008Z,86.75
2022-11-17T15:02:32.171Z,86.78
2022-11-17T15:05:09.931Z,86.64
2022-11-17T15:07:46.140Z,86.56
2022-11-17T15:10:23.209Z,86.56
2022-11-17T15:12:59.166Z,86.48
2022-11-17T15:15:35.268Z,86.56
2022-11-17T15:18:13.026Z,86.48
2022-11-17T15:20:49.105Z,86.50
2022-11-17T15:23:25.038Z,86.51
2022-11-17T15:26:06.624Z,86.53
2022-11-17T15:28:43.521Z,86.58
2022-11-17T15:31:22.510Z,86.66
2022-11-17T15:33:58.792Z,86.75
2022-11-17T15:36:34.909Z,86.80
2022-11-17T15:39:11.672Z,86.86
2022-11-17T15:41:48.965Z,86.93
2022-11-17T15:44:25.173Z,87.00
2022-11-17T15:47:01.462Z,87.01
2022-11-17T15:49:37.713Z,86.97
2022-11-17T15:52:13.893Z,86.97
2022-11-17T15:54:49.823Z,86.85
2022-11-17T15:57:26.084Z,87.01
2022-11-17T16:00:02.041Z,87.02
2022-11-17T16:02:41.643Z,87.10
2022-11-17T16:05:17.951Z,87.10
2022-11-17T16:07:53.928Z,87.01
2022-11-17T16:10:30.339Z,87.01
2022-11-17T16:13:06.327Z,87.02
2022-11-17T16:15:42.389Z,86.90
2022-11-17T16:18:18.624Z,86.71
2022-11-17T16:20:56.163Z,86.57
2022-11-17T16:23:40.180Z,86.52
2022-11-17T16:26:19.170Z,86.56
2022-11-17T16:29:01.127Z,86.53
2022-11-17T16:31:39.063Z,86.57
2022-11-17T16:34:19.350Z,86.49
2022-11-17T16:36:55.420Z,86.31
2022-11-17T16:39:31.700Z,86.26
2022-11-17T16:42:08.871Z,86.21
2022-11-17T16:44:44.865Z,86.14
2022-11-17T16:47:20.884Z,86.14
2022-11-17T16:49:56.910Z,86.14
2022-11-17T16:52:34.852Z,86.08
2022-11-17T16:55:13.156Z,86.24
2022-11-17T16:57:49.216Z,86.26
2022-11-17T17:00:26.728Z,86.27
2022-11-17T17:03:03.216Z,86.37
2022-11-17T17:05:42.621Z,86.34
2022-11-17T17:08:18.883Z,86.38
2022-11-17T17:10:55.024Z,86.44
2022-11-17T17:13:30.985Z,86.49
2022-11-17T17:16:12.716Z,86.53
2022-11-17T17:18:48.948Z,86.58
2022-11-17T17:21:27.875Z,86.53
2022-11-17T17:24:05.497Z,86.58
2022-11-17T17:26:42.772Z,86.45
2022-11-17T17:29:19.494Z,86.52
2022-11-17T17:32:04.149Z,86.54
2022-11-17T17:34:40.935Z,86.50
2022-11-17T17:37:17.732Z,86.42
2022-11-17T17:39:53.924Z,86.47
2022-11-17T17:42:30.372Z,86.50
2022-11-17T17:45:07.765Z,86.47
2022-11-17T17:47:43.828Z,86.50
2022-11-17T17:50:20.536Z,86.45
2022-11-17T17:52:56.601Z,86.22
2022-11-17T17:55:34.204Z,86.21
2022-11-17T17:58:10.298Z,86.12
2022-11-17T18:00:47.580Z,86.15
2022-11-17T18:03:23.806Z,86.19
2022-11-17T18:06:04.969Z,86.15
2022-11-17T18:08:41.503Z,86.11
2022-11-17T18:11:21.158Z,86.01
2022-11-17T18:13:58.596Z,86.03
2022-11-17T18:16:36.425Z,86.01
2022-11-17T18:19:18.108Z,86.06
2022-11-17T18:21:52.798Z,86.03
2022-11-17T18:24:29.885Z,86.08
2022-11-17T18:27:08.420Z,86.10
2022-11-17T18:29:45.632Z,86.03
2022-11-17T18:32:21.575Z,86.09
2022-11-17T18:34:57.748Z,86.10
2022-11-17T18:37:34.034Z,86.12
2022-11-17T18:40:14.228Z,86.05
2022-11-17T18:42:50.135Z,86.14
2022-11-17T18:45:26.155Z,86.01
2022-11-17T18:48:02.122Z,85.85
2022-11-17T18:50:57.906Z,85.82
2022-11-17T18:53:37.177Z,85.92
2022-11-17T18:56:16.366Z,85.92
2022-11-17T18:58:52.661Z,85.95
2022-11-17T19:01:30.890Z,85.98
2022-11-17T19:04:07.599Z,85.94
2022-11-17T19:06:44.038Z,86.04
2022-11-17T19:09:20.377Z,86.19
2022-11-17T19:11:57.257Z,86.18
2022-11-17T19:14:33.919Z,86.28
2022-11-17T19:17:10.032Z,86.36
2022-11-17T19:19:46.274Z,86.32
2022-11-17T19:22:22.718Z,86.20
2022-11-17T19:24:58.778Z,86.24
2022-11-17T19:27:35.083Z,86.19
2022-11-17T19:30:14.874Z,86.21
2022-11-17T19:32:51.359Z,86.21
2022-11-17T19:35:27.603Z,86.23
2022-11-17T19:38:04.024Z,86.25
2022-11-17T19:40:40.353Z,86.35
2022-11-17T19:43:19.345Z,86.41
2022-11-17T19:46:00.481Z,86.40
2022-11-17T19:48:37.409Z,86.45
2022-11-17T19:51:25.769Z,86.58
2022-11-17T19:54:07.166Z,86.57
2022-11-17T19:56:43.213Z,86.54
2022-11-17T19:59:22.294Z,86.52
2022-11-17T20:01:59.149Z,86.55
2022-11-17T20:04:35.591Z,86.57
2022-11-17T20:07:13.812Z,86.58
2022-11-17T20:09:50.259Z,86.39
2022-11-17T20:12:26.730Z,86.29
2022-11-17T20:15:02.991Z,86.36
2022-11-17T20:17:38.859Z,86.33
2022-11-17T20:20:17.195Z,86.30
2022-11-17T20:22:53.113Z,86.34
2022-11-17T20:25:31.028Z,86.30
2022-11-17T20:28:08.712Z,86.31
2022-11-17T20:30:46.341Z,86.39
2022-11-17T20:33:22.571Z,86.40
2022-11-17T20:36:02.613Z,86.40
2022-11-17T20:38:39.288Z,86.46
2022-11-17T20:41:15.556Z,86.41
2022-11-17T20:43:55.011Z,86.28
2022-11-17T20:46:31.642Z,86.23
2022-11-17T20:49:08.237Z,86.25
2022-11-17T20:51:45.217Z,86.22
2022-11-17T20:54:21.589Z,86.20
2022-11-17T20:56:57.847Z,86.18
2022-11-17T20:59:33.804Z,86.24
2022-11-17T21:02:11.910Z,86.24
2022-11-17T21:04:47.966Z,86.29
2022-11-17T21:07:24.207Z,86.28
2022-11-17T21:10:00.500Z,86.24
2022-11-17T21:12:36.734Z,86.10
2022-11-17T21:15:14.324Z,85.92
2022-11-17T21:18:07.691Z,86.00
2022-11-17T21:20:43.850Z,86.10
2022-11-17T21:23:19.921Z,85.89
2022-11-17T21:25:55.881Z,85.81
2022-11-17T21:28:31.891Z,85.89
2022-11-17T21:31:15.464Z,85.90
2022-11-17T21:33:55.085Z,85.99
2022-11-17T21:36:34.822Z,86.04
2022-11-17T21:39:16.750Z,86.04
2022-11-17T21:41:53.014Z,85.96
2022-11-17T21:44:29.021Z,85.86
2022-11-17T21:47:05.333Z,85.85
2022-11-17T21:49:41.260Z,85.87
2022-11-17T21:52:17.450Z,85.76
2022-11-17T21:54:53.407Z,85.87
2022-11-17T21:57:29.581Z,85.87
2022-11-17T22:00:06.163Z,85.95
2022-11-17T22:02:42.198Z,85.97
2022-11-17T22:05:18.463Z,85.89
2022-11-17T22:07:54.426Z,85.78
2022-11-17T22:10:30.381Z,85.86
2022-11-17T22:13:08.381Z,85.97
2022-11-17T22:15:44.265Z,86.10
2022-11-17T22:18:20.104Z,86.07
2022-11-17T22:20:57.656Z,85.87
2022-11-17T22:23:34.254Z,85.75
2022-11-17T22:26:12.536Z,85.75
2022-11-17T22:28:53.918Z,85.91
2022-11-17T22:31:30.003Z,85.94
2022-11-17T22:34:06.413Z,85.90
2022-11-17T22:36:42.585Z,85.81
2022-11-17T22:39:20.087Z,85.80
2022-11-17T22:41:56.333Z,85.81
2022-11-17T22:44:32.350Z,85.82
2022-11-17T22:47:08.374Z,85.75
2022-11-17T22:49:44.365Z,85.66
2022-11-17T22:52:20.423Z,85.69
2022-11-17T22:54:56.490Z,85.67
2022-11-17T22:57:32.537Z,85.62
2022-11-17T23:00:11.380Z,85.69
2022-11-17T23:02:47.361Z,85.67
2022-11-17T23:05:23.907Z,85.65
2022-11-17T23:08:00.901Z,85.84
2022-11-17T23:10:39.490Z,85.81
2022-11-17T23:13:15.659Z,85.88
2022-11-17T23:15:51.709Z,85.85
2022-11-17T23:18:28.026Z,85.80
2022-11-17T23:21:08.258Z,85.87
2022-11-17T23:23:44.899Z,85.87
2022-11-17T23:26:21.062Z,85.76
2022-11-17T23:28:58.363Z,85.68
2022-11-17T23:31:34.492Z,85.71
2022-11-17T23:34:12.812Z,85.72
2022-11-17T23:36:48.673Z,85.68
2022-11-17T23:39:25.295Z,85.60
2022-11-17T23:42:01.404Z,85.70
2022-11-17T23:44:37.361Z,85.74
2022-11-17T23:47:13.282Z,85.73
2022-11-17T23:49:49.554Z,85.60
2022-11-17T23:52:25.648Z,85.60
2022-11-17T23:55:01.599Z,85.58
2022-11-17T23:57:37.393Z,85.61
